Air Navigation Services of Czech Republic
Airport: LKTB Updated:  21.01.2020 23:30:26  UTC
 METAR LKTB 21.01. 23:30 ...
METAR LKTB 212330Z 32004KT 9999 OVC010 M01/M03 Q1037 R27/21//95 BECMG OVC009 RMK REG QNH 1031=
 TAF LKTB 21.01. 23:00 ...
TAF LKTB 212300Z 2200/2306 30005KT 7000 BKN011      TEMPO 2200/2208 BKN015      BECMG 2208/2210 9999 SCT023      BECMG 2217/2219 33010KT BKN020      TEMPO 2219/2306 -SN BKN014=